Time;durP1;ratioP1;P1;durP2;ratioP2;P2;SDS_P1;SDS_P2;PMS_P1;PMS_P2;Temp;Humidity;BMP_temperature;BMP_pressure;BME280_temperature;BME280_humidity;BME280_pressure;Samples;Min_cycle;Max_cycle;Signal;HPM_P1;HPM_P2
2023/03/04 00:01:14;;;;;;;136.88;66.72;;;6.40;99.90;;;;;;5010650;28;20080;-78
2023/03/04 00:03:42;;;;;;;122.72;62.20;;;6.20;99.90;;;;;;5010392;28;20509;-77
2023/03/04 00:06:09;;;;;;;112.60;56.95;;;6.10;99.90;;;;;;5009806;28;20053;-77
2023/03/04 00:08:37;;;;;;;122.90;61.55;;;6.10;99.90;;;;;;5012268;28;20110;-79
2023/03/04 00:11:05;;;;;;;128.05;65.65;;;6.10;99.90;;;;;;5010797;28;20046;-78
2023/03/04 00:13:32;;;;;;;136.85;67.28;;;6.10;99.90;;;;;;5010201;28;20133;-77
2023/03/04 00:16:01;;;;;;;121.07;64.55;;;6.20;99.90;;;;;;5009342;28;20573;-77
2023/03/04 00:18:29;;;;;;;121.07;63.15;;;6.20;99.90;;;;;;5008957;28;20152;-78
2023/03/04 00:20:56;;;;;;;109.80;58.42;;;6.30;99.90;;;;;;5009571;28;20125;-79
2023/03/04 00:23:24;;;;;;;112.05;57.28;;;6.40;99.90;;;;;;5016872;28;20100;-79
2023/03/04 00:25:51;;;;;;;130.63;63.40;;;6.40;99.90;;;;;;5009200;28;20049;-77
2023/03/04 00:28:19;;;;;;;117.45;59.20;;;6.50;99.90;;;;;;5009672;28;20494;-78
2023/03/04 00:30:46;;;;;;;109.60;55.75;;;6.50;99.90;;;;;;5009673;28;20034;-76
2023/03/04 00:33:16;;;;;;;109.47;55.95;;;6.50;99.90;;;;;;5007711;28;20425;-78
2023/03/04 00:35:43;;;;;;;111.75;56.88;;;6.50;99.90;;;;;;5007894;28;20160;-77
2023/03/04 00:38:11;;;;;;;117.32;59.25;;;6.60;99.90;;;;;;5009103;28;20045;-75
2023/03/04 00:40:38;;;;;;;113.60;56.97;;;6.60;99.90;;;;;;5001012;28;20053;-75
2023/03/04 00:43:06;;;;;;;136.77;67.18;;;6.60;99.90;;;;;;5009009;28;20128;-77
2023/03/04 00:45:34;;;;;;;144.55;69.65;;;6.60;99.90;;;;;;5008405;28;20048;-77
2023/03/04 00:48:01;;;;;;;147.55;68.07;;;6.60;99.90;;;;;;5009211;28;20602;-77
2023/03/04 00:50:30;;;;;;;155.75;72.30;;;6.60;99.90;;;;;;5013088;28;20042;-78
2023/03/04 00:52:58;;;;;;;157.57;69.60;;;6.50;99.90;;;;;;5024279;28;20117;-76
2023/03/04 00:55:26;;;;;;;149.48;69.40;;;6.50;99.90;;;;;;5008180;28;20073;-76
2023/03/04 00:57:54;;;;;;;150.93;69.95;;;6.50;99.90;;;;;;5007266;28;20069;-77
2023/03/04 01:00:22;;;;;;;138.02;71.85;;;6.40;99.90;;;;;;5007437;28;20050;-77
2023/03/04 01:02:51;;;;;;;140.30;72.13;;;6.40;99.90;;;;;;5008353;28;20125;-75
2023/03/04 01:05:19;;;;;;;150.82;74.38;;;6.20;99.90;;;;;;5008610;28;20045;-76
2023/03/04 01:07:48;;;;;;;168.57;76.53;;;6.10;99.90;;;;;;5008812;28;20442;-78
2023/03/04 01:10:16;;;;;;;161.13;74.68;;;6.00;99.90;;;;;;5007729;28;20073;-77
2023/03/04 01:12:43;;;;;;;166.77;78.50;;;6.00;99.90;;;;;;5008707;28;20476;-77
2023/03/04 01:15:13;;;;;;;171.63;79.53;;;6.00;99.90;;;;;;5008098;28;20564;-77
2023/03/04 01:17:41;;;;;;;171.02;78.88;;;6.00;99.90;;;;;;5007673;28;20054;-77
2023/03/04 01:20:10;;;;;;;161.63;76.13;;;6.00;99.90;;;;;;5010625;28;20046;-79
2023/03/04 01:22:37;;;;;;;149.13;74.07;;;6.00;99.90;;;;;;5008371;28;20044;-76
2023/03/04 01:25:07;;;;;;;164.13;78.57;;;5.90;99.90;;;;;;5008252;28;20045;-77
2023/03/04 01:27:35;;;;;;;161.43;79.85;;;5.90;99.90;;;;;;5008136;28;20124;-76
2023/03/04 01:30:02;;;;;;;163.95;76.50;;;5.90;99.90;;;;;;5006622;28;20057;-77
2023/03/04 01:32:30;;;;;;;156.57;77.60;;;5.80;99.90;;;;;;5009263;28;20030;-76
2023/03/04 01:34:57;;;;;;;172.35;79.82;;;5.70;99.90;;;;;;5006747;28;20046;-77
2023/03/04 01:37:25;;;;;;;163.95;78.18;;;5.60;99.90;;;;;;5007979;28;20041;-78
2023/03/04 01:39:52;;;;;;;159.25;72.50;;;5.50;99.90;;;;;;5007737;28;20156;-78
2023/03/04 01:42:23;;;;;;;155.18;70.90;;;5.50;99.90;;;;;;5006073;28;20046;-78
2023/03/04 01:44:52;;;;;;;161.93;71.57;;;5.60;99.90;;;;;;5006989;28;20085;-78
2023/03/04 01:47:22;;;;;;;157.75;70.38;;;5.50;99.90;;;;;;5011057;28;20053;-77
2023/03/04 01:49:54;;;;;;;158.93;72.47;;;5.50;99.90;;;;;;5015879;28;20122;-77
2023/03/04 01:52:21;;;;;;;167.02;73.32;;;5.60;99.90;;;;;;5010429;28;20053;-77
2023/03/04 01:54:52;;;;;;;157.10;68.18;;;5.60;99.90;;;;;;5007839;28;20513;-78
2023/03/04 01:57:23;;;;;;;157.88;67.15;;;5.60;99.90;;;;;;5007703;28;20046;-77
2023/03/04 02:00:17;;;;;;;161.63;65.75;;;5.60;99.90;;;;;;5005418;28;20264;-78
2023/03/04 02:02:46;;;;;;;168.90;69.32;;;5.70;99.90;;;;;;5007806;28;20116;-78
2023/03/04 02:05:14;;;;;;;171.05;70.30;;;5.70;99.90;;;;;;5008232;28;20061;-75
2023/03/04 02:07:42;;;;;;;177.70;69.95;;;5.70;99.90;;;;;;4998725;28;20165;-78
2023/03/04 02:10:11;;;;;;;171.30;67.35;;;5.70;99.90;;;;;;5005317;28;20053;-76
2023/03/04 02:12:41;;;;;;;178.23;70.07;;;5.70;99.90;;;;;;5004702;28;20514;-76
2023/03/04 02:15:09;;;;;;;174.25;69.88;;;5.60;99.90;;;;;;5008250;28;20096;-78
2023/03/04 02:17:37;;;;;;;169.48;69.35;;;5.60;99.90;;;;;;5007188;28;20054;-77
2023/03/04 02:20:15;;;;;;;183.85;73.63;;;5.60;99.90;;;;;;5005306;28;20096;-76
2023/03/04 02:22:50;;;;;;;176.32;75.05;;;5.50;99.90;;;;;;5007975;28;20181;-75
2023/03/04 02:25:22;;;;;;;181.87;70.70;;;5.50;99.90;;;;;;5005870;28;20049;-77
2023/03/04 02:27:51;;;;;;;179.85;71.60;;;5.50;99.90;;;;;;4997265;28;20065;-77
2023/03/04 02:30:21;;;;;;;176.27;70.88;;;5.50;99.90;;;;;;5007304;28;20084;-76
2023/03/04 02:32:50;;;;;;;167.18;68.85;;;5.60;99.90;;;;;;5005272;28;20405;-75
2023/03/04 02:35:18;;;;;;;184.23;70.95;;;5.60;99.90;;;;;;4997480;28;20046;-77
2023/03/04 02:37:46;;;;;;;171.63;68.93;;;5.60;99.90;;;;;;5005203;28;20046;-78
2023/03/04 02:40:20;;;;;;;181.32;71.47;;;5.60;99.90;;;;;;5009513;28;20060;-78
2023/03/04 02:42:48;;;;;;;176.45;70.95;;;5.60;99.90;;;;;;5006478;28;20141;-76
2023/03/04 02:45:42;;;;;;;191.73;75.60;;;5.60;99.90;;;;;;5006712;28;20046;-78
2023/03/04 02:48:11;;;;;;;204.75;76.55;;;5.50;99.90;;;;;;5006240;28;20038;-77
2023/03/04 02:50:42;;;;;;;184.93;74.35;;;5.40;99.90;;;;;;5005920;28;20060;-76
2023/03/04 02:53:11;;;;;;;186.65;75.72;;;5.40;99.90;;;;;;5003447;28;20042;-78
2023/03/04 02:55:38;;;;;;;187.00;77.10;;;5.40;99.90;;;;;;5004364;28;20482;-77
2023/03/04 02:58:07;;;;;;;181.02;73.68;;;5.50;99.90;;;;;;5006519;28;20066;-78
2023/03/04 03:00:38;;;;;;;184.30;78.30;;;5.50;99.90;;;;;;5006992;28;20046;-76
2023/03/04 03:03:06;;;;;;;184.90;78.70;;;5.50;99.90;;;;;;5005948;28;20042;-78
2023/03/04 03:05:37;;;;;;;180.85;78.45;;;5.50;99.90;;;;;;5007221;28;20042;-78
2023/03/04 03:08:05;;;;;;;190.35;79.20;;;5.50;99.90;;;;;;5005222;28;20060;-76
2023/03/04 03:10:33;;;;;;;192.73;76.57;;;5.50;99.90;;;;;;5006130;28;20049;-76
2023/03/04 03:13:01;;;;;;;187.52;80.43;;;5.40;99.90;;;;;;5005293;28;20061;-76
2023/03/04 03:15:28;;;;;;;173.52;76.63;;;5.40;99.90;;;;;;5005599;28;20133;-75
2023/03/04 03:17:58;;;;;;;174.70;79.57;;;5.40;99.90;;;;;;5046966;23;20149;-75
2023/03/04 03:20:26;;;;;;;171.82;75.05;;;5.40;99.90;;;;;;5035102;28;20118;-77
2023/03/04 03:22:54;;;;;;;173.95;79.30;;;5.40;99.90;;;;;;5049413;28;20065;-79
2023/03/04 03:25:21;;;;;;;177.57;80.47;;;5.40;99.90;;;;;;5041327;28;20047;-78
2023/03/04 03:27:49;;;;;;;179.82;88.15;;;5.40;99.90;;;;;;5032606;28;20144;-76
2023/03/04 03:30:17;;;;;;;178.55;87.03;;;5.40;99.90;;;;;;5033934;28;20053;-76
2023/03/04 03:32:45;;;;;;;166.60;79.22;;;5.40;99.90;;;;;;5054038;28;20033;-77
2023/03/04 03:35:13;;;;;;;158.90;75.78;;;5.50;99.90;;;;;;5047177;28;20129;-76
2023/03/04 03:37:41;;;;;;;152.88;77.50;;;5.50;99.90;;;;;;5040287;28;20044;-75
2023/03/04 03:40:14;;;;;;;139.02;74.55;;;5.50;99.90;;;;;;5035786;28;20508;-74
2023/03/04 03:42:41;;;;;;;135.35;68.82;;;5.50;99.90;;;;;;5034337;28;20079;-74
2023/03/04 03:45:10;;;;;;;121.65;62.75;;;5.40;99.90;;;;;;5034463;28;20049;-74
2023/03/04 03:47:37;;;;;;;125.10;67.50;;;5.50;99.90;;;;;;5033260;28;20496;-75
2023/03/04 03:50:06;;;;;;;132.73;65.05;;;5.50;99.90;;;;;;5031931;28;20068;-76
2023/03/04 03:52:35;;;;;;;132.93;63.83;;;5.50;99.90;;;;;;5031592;28;20042;-76
2023/03/04 03:55:02;;;;;;;125.80;59.38;;;5.50;99.90;;;;;;5029909;28;20041;-75
2023/03/04 03:57:30;;;;;;;133.38;60.78;;;5.50;99.90;;;;;;5029182;28;20063;-76
2023/03/04 03:59:57;;;;;;;123.82;57.90;;;5.50;99.90;;;;;;5030172;28;20822;-75
2023/03/04 04:02:25;;;;;;;148.43;61.25;;;5.60;99.90;;;;;;5030824;28;20125;-76
2023/03/04 04:04:52;;;;;;;128.82;61.40;;;5.60;99.90;;;;;;5030318;28;20472;-75
2023/03/04 04:07:20;;;;;;;141.95;63.08;;;5.60;99.90;;;;;;5032152;28;20746;-75
2023/03/04 04:09:48;;;;;;;171.93;67.93;;;5.70;99.90;;;;;;5030348;28;20049;-77
2023/03/04 04:12:19;;;;;;;170.70;68.22;;;5.70;99.90;;;;;;5029861;28;20060;-78
2023/03/04 04:14:47;;;;;;;183.93;72.43;;;5.70;99.90;;;;;;5030406;28;20041;-76
2023/03/04 04:17:14;;;;;;;183.50;72.78;;;5.80;99.90;;;;;;5031788;28;20057;-77
2023/03/04 04:19:42;;;;;;;176.30;69.30;;;5.80;99.90;;;;;;5034516;28;20049;-78
2023/03/04 04:22:14;;;;;;;176.18;71.68;;;5.80;99.90;;;;;;5034282;28;20055;-76
2023/03/04 04:24:43;;;;;;;190.02;75.72;;;5.90;99.90;;;;;;5032790;28;20045;-75
2023/03/04 04:27:14;;;;;;;210.13;74.18;;;5.80;99.90;;;;;;5029583;28;20400;-74
2023/03/04 04:29:42;;;;;;;224.73;78.25;;;5.80;99.90;;;;;;5030635;28;20038;-76
2023/03/04 04:32:11;;;;;;;214.25;77.00;;;5.80;99.90;;;;;;5028963;28;20718;-75
2023/03/04 04:34:39;;;;;;;214.35;74.05;;;5.80;99.90;;;;;;5030353;28;20045;-77
2023/03/04 04:37:06;;;;;;;214.50;72.03;;;5.80;99.90;;;;;;5032086;28;20052;-78
2023/03/04 04:39:34;;;;;;;237.57;79.88;;;5.80;99.90;;;;;;5046880;28;20081;-78
2023/03/04 04:42:01;;;;;;;266.00;88.97;;;5.80;99.90;;;;;;5051213;28;20076;-77
2023/03/04 04:44:30;;;;;;;252.40;87.78;;;5.80;99.90;;;;;;5031165;28;20056;-74
2023/03/04 04:46:57;;;;;;;263.73;89.72;;;5.90;99.90;;;;;;5029441;28;20053;-76
2023/03/04 04:49:25;;;;;;;264.25;89.50;;;5.90;99.90;;;;;;5028938;28;20041;-74
2023/03/04 04:51:52;;;;;;;276.95;91.47;;;5.90;99.90;;;;;;5030294;28;20049;-77
2023/03/04 04:54:19;;;;;;;282.17;91.63;;;5.90;99.90;;;;;;5031055;28;20478;-76
2023/03/04 04:56:47;;;;;;;269.48;92.18;;;5.80;99.90;;;;;;5029744;28;20034;-76
2023/03/04 04:59:14;;;;;;;280.70;91.05;;;5.80;99.90;;;;;;5030902;28;20504;-76
2023/03/04 05:01:43;;;;;;;278.55;91.95;;;5.80;99.90;;;;;;5029341;28;20131;-76
2023/03/04 05:04:11;;;;;;;280.05;92.70;;;5.80;99.90;;;;;;5030063;28;20049;-77
2023/03/04 05:06:38;;;;;;;283.17;93.10;;;5.80;99.90;;;;;;5030379;28;20622;-76
2023/03/04 05:09:06;;;;;;;264.35;87.28;;;5.70;99.90;;;;;;5031829;28;20049;-77
2023/03/04 05:11:33;;;;;;;270.00;90.57;;;5.70;99.90;;;;;;5029050;28;20033;-77
2023/03/04 05:14:01;;;;;;;274.90;89.00;;;5.70;99.90;;;;;;5027536;28;20046;-75
2023/03/04 05:16:28;;;;;;;275.55;89.53;;;5.70;99.90;;;;;;5028239;28;20060;-77
2023/03/04 05:18:57;;;;;;;282.23;90.78;;;5.80;99.90;;;;;;5028890;28;20045;-77
2023/03/04 05:21:25;;;;;;;242.20;86.80;;;5.70;99.90;;;;;;5028747;28;20477;-77
2023/03/04 05:23:52;;;;;;;235.73;81.65;;;5.70;99.90;;;;;;5043095;28;20045;-77
2023/03/04 05:26:20;;;;;;;214.27;78.45;;;5.70;99.90;;;;;;5047227;28;20089;-79
2023/03/04 05:28:47;;;;;;;219.13;80.10;;;5.70;99.90;;;;;;5035411;28;20041;-76
2023/03/04 05:31:15;;;;;;;218.23;80.95;;;5.70;99.90;;;;;;5029869;28;20060;-76
2023/03/04 05:33:42;;;;;;;230.25;82.68;;;5.70;99.90;;;;;;5029901;28;20095;-77
2023/03/04 05:36:11;;;;;;;246.88;80.78;;;5.70;99.90;;;;;;5027961;28;20045;-76
2023/03/04 05:38:39;;;;;;;238.07;79.75;;;5.70;99.90;;;;;;5026889;28;20052;-75
2023/03/04 05:41:07;;;;;;;237.73;78.68;;;5.50;99.90;;;;;;5028169;28;20045;-75
2023/03/04 05:43:37;;;;;;;237.52;81.95;;;5.50;99.90;;;;;;5028652;28;20041;-75
2023/03/04 05:46:05;;;;;;;255.80;85.57;;;5.40;99.90;;;;;;5026927;28;20037;-76
2023/03/04 05:48:32;;;;;;;245.38;82.68;;;5.50;99.90;;;;;;5028172;28;20042;-77
2023/03/04 05:51:01;;;;;;;229.98;78.05;;;5.50;99.90;;;;;;5029391;28;20544;-76
2023/03/04 05:53:31;;;;;;;228.13;77.82;;;5.50;99.90;;;;;;5027479;28;20041;-77
2023/03/04 05:55:58;;;;;;;216.07;77.05;;;5.50;99.90;;;;;;5028296;28;20041;-76
2023/03/04 05:58:26;;;;;;;217.95;78.28;;;5.50;99.90;;;;;;5028476;28;20041;-75
2023/03/04 06:00:53;;;;;;;219.27;80.38;;;5.50;99.90;;;;;;5027964;28;20061;-76
2023/03/04 06:03:30;;;;;;;225.18;77.88;;;5.60;99.90;;;;;;5027700;28;20132;-75
2023/03/04 06:05:57;;;;;;;234.80;80.90;;;5.60;99.90;;;;;;5028651;28;20141;-74
2023/03/04 06:08:25;;;;;;;241.80;80.65;;;5.60;99.90;;;;;;5028184;28;20485;-76
2023/03/04 06:10:55;;;;;;;228.52;81.65;;;5.60;99.90;;;;;;5028568;28;20504;-74
2023/03/04 06:13:23;;;;;;;215.85;82.22;;;5.60;99.90;;;;;;5028680;28;20167;-76
2023/03/04 06:15:55;;;;;;;228.52;80.43;;;5.60;99.90;;;;;;5027996;28;20037;-74
2023/03/04 06:18:23;;;;;;;235.65;77.35;;;5.70;99.90;;;;;;5027365;28;20338;-75
2023/03/04 06:20:50;;;;;;;236.45;80.10;;;5.70;99.90;;;;;;5027478;28;20037;-76
2023/03/04 06:23:18;;;;;;;237.90;80.03;;;5.70;99.90;;;;;;5028101;28;20056;-77
2023/03/04 06:25:45;;;;;;;227.68;83.45;;;5.70;99.90;;;;;;5029180;28;20045;-75
2023/03/04 06:28:14;;;;;;;245.38;89.88;;;5.70;99.90;;;;;;5029781;28;20038;-75
2023/03/04 06:30:41;;;;;;;218.32;88.63;;;5.70;99.90;;;;;;5029141;28;20042;-75
2023/03/04 06:33:09;;;;;;;247.30;83.38;;;5.70;99.90;;;;;;5028154;28;20048;-76
2023/03/04 06:35:36;;;;;;;227.90;85.53;;;5.70;99.90;;;;;;5027668;28;20048;-74
2023/03/04 06:38:04;;;;;;;242.85;95.50;;;5.70;99.90;;;;;;5026583;28;20065;-75
2023/03/04 06:40:31;;;;;;;240.32;96.60;;;5.70;99.90;;;;;;5028080;28;20052;-75
2023/03/04 06:42:59;;;;;;;245.95;95.43;;;5.70;99.90;;;;;;5028498;28;20056;-76
2023/03/04 06:45:28;;;;;;;218.65;89.00;;;5.70;99.90;;;;;;5053061;28;20127;-76
2023/03/04 06:47:55;;;;;;;240.07;97.15;;;5.70;99.90;;;;;;5050543;28;20064;-78
2023/03/04 06:50:23;;;;;;;233.15;91.35;;;5.70;99.90;;;;;;5042890;28;20096;-75
2023/03/04 06:53:24;;;;;;;223.07;91.50;;;5.70;99.90;;;;;;5033740;28;20038;-73
2023/03/04 06:55:51;;;;;;;236.27;95.65;;;5.70;99.90;;;;;;5033564;28;20480;-76
2023/03/04 06:58:19;;;;;;;244.15;107.07;;;5.70;99.90;;;;;;5041237;28;20052;-76
2023/03/04 07:00:48;;;;;;;259.25;108.25;;;5.70;99.90;;;;;;5036900;28;20068;-77
2023/03/04 07:03:15;;;;;;;250.07;109.30;;;5.60;99.90;;;;;;5040833;28;20038;-76
2023/03/04 07:05:43;;;;;;;251.95;104.72;;;5.60;99.90;;;;;;5033909;28;20074;-76
2023/03/04 07:08:11;;;;;;;261.25;105.15;;;5.70;99.90;;;;;;5031209;28;20041;-76
2023/03/04 07:10:38;;;;;;;217.95;84.63;;;5.70;99.90;;;;;;5029414;28;20041;-74
2023/03/04 07:13:08;;;;;;;223.63;84.88;;;5.70;99.90;;;;;;5032802;28;20049;-76
2023/03/04 07:15:37;;;;;;;213.00;77.78;;;5.70;99.90;;;;;;5038194;28;20104;-75
2023/03/04 07:18:06;;;;;;;212.90;78.28;;;5.80;99.90;;;;;;5036342;28;20470;-78
2023/03/04 07:20:33;;;;;;;198.38;69.10;;;5.80;99.90;;;;;;5034968;28;20136;-74
2023/03/04 07:23:01;;;;;;;206.10;73.53;;;5.90;99.90;;;;;;5033523;28;20164;-76
2023/03/04 07:25:28;;;;;;;194.27;70.68;;;5.90;99.90;;;;;;5033041;28;20401;-76
2023/03/04 07:27:56;;;;;;;206.57;72.28;;;5.90;99.90;;;;;;5032135;28;20404;-74
2023/03/04 07:30:23;;;;;;;219.88;74.53;;;5.90;99.90;;;;;;5032549;28;20034;-76
2023/03/04 07:32:50;;;;;;;205.40;73.43;;;6.00;99.90;;;;;;5031050;28;20702;-76
2023/03/04 07:35:20;;;;;;;259.98;99.95;;;6.00;99.90;;;;;;5032979;28;20071;-74
2023/03/04 07:37:48;;;;;;;214.15;73.60;;;6.00;99.90;;;;;;5031713;28;20128;-74
2023/03/04 07:40:15;;;;;;;210.55;70.03;;;6.10;99.90;;;;;;5033271;28;20248;-76
2023/03/04 07:42:43;;;;;;;198.55;68.15;;;6.10;99.90;;;;;;5035397;28;20076;-76
2023/03/04 07:45:15;;;;;;;213.98;72.63;;;6.10;99.90;;;;;;5049602;28;20026;-73
2023/03/04 07:47:43;;;;;;;209.50;72.05;;;6.20;99.90;;;;;;5046332;28;20049;-75
2023/03/04 07:50:11;;;;;;;203.38;71.22;;;6.20;99.90;;;;;;5054214;28;20056;-75
2023/03/04 07:52:42;;;;;;;234.82;92.57;;;6.20;99.90;;;;;;5050806;28;20114;-75
2023/03/04 07:55:11;;;;;;;250.88;91.30;;;6.20;99.90;;;;;;5050485;28;20060;-74
2023/03/04 07:57:39;;;;;;;238.98;91.57;;;6.20;99.90;;;;;;5040968;28;20533;-78
2023/03/04 08:00:08;;;;;;;255.40;94.80;;;6.10;99.90;;;;;;5048424;28;20137;-79
2023/03/04 08:02:39;;;;;;;246.52;92.80;;;6.20;99.90;;;;;;5053155;23;20042;-80
2023/03/04 08:05:08;;;;;;;244.60;91.32;;;6.20;99.90;;;;;;5039459;28;20091;-78
2023/03/04 08:07:35;;;;;;;241.80;91.47;;;6.20;99.90;;;;;;5032617;28;20045;-78
2023/03/04 08:10:06;;;;;;;232.57;89.95;;;6.20;99.90;;;;;;5032186;28;20409;-75
2023/03/04 08:12:35;;;;;;;237.25;90.57;;;6.20;99.90;;;;;;5031786;28;20063;-78
2023/03/04 08:15:03;;;;;;;237.88;89.55;;;6.30;99.90;;;;;;5038019;28;20041;-77
2023/03/04 08:17:30;;;;;;;237.07;91.10;;;6.30;99.90;;;;;;5031556;28;20042;-74
2023/03/04 08:19:58;;;;;;;236.27;93.45;;;6.30;99.90;;;;;;5031774;28;20497;-76
2023/03/04 08:22:25;;;;;;;233.55;91.15;;;6.40;99.90;;;;;;5029478;28;20049;-77
2023/03/04 08:24:54;;;;;;;235.90;90.55;;;6.40;99.90;;;;;;5028188;28;20079;-76
2023/03/04 08:27:26;;;;;;;252.48;93.57;;;6.40;99.90;;;;;;5031950;28;20057;-78
2023/03/04 08:29:54;;;;;;;256.25;94.60;;;6.40;99.90;;;;;;5031020;28;20045;-77
2023/03/04 08:32:21;;;;;;;252.40;92.68;;;6.50;99.90;;;;;;5031195;28;20107;-77
2023/03/04 08:34:49;;;;;;;251.27;93.05;;;6.50;99.90;;;;;;5030440;28;20053;-75
2023/03/04 08:37:16;;;;;;;254.48;92.13;;;6.50;99.90;;;;;;5030842;28;20037;-77
2023/03/04 08:39:43;;;;;;;237.93;90.32;;;6.50;99.90;;;;;;5032467;28;20037;-75
2023/03/04 08:42:11;;;;;;;282.13;100.95;;;6.50;99.90;;;;;;5031737;28;20056;-76
2023/03/04 08:44:40;;;;;;;314.25;113.55;;;6.50;99.90;;;;;;5035788;28;20577;-76
2023/03/04 08:47:09;;;;;;;266.65;98.53;;;6.60;99.90;;;;;;5033084;28;20817;-78
2023/03/04 08:49:39;;;;;;;270.35;101.32;;;6.60;99.90;;;;;;5040479;28;20167;-76
2023/03/04 08:52:06;;;;;;;261.20;99.50;;;6.50;99.90;;;;;;5042762;28;20053;-75
2023/03/04 08:54:34;;;;;;;249.52;94.25;;;6.50;99.90;;;;;;5039515;28;20049;-76
2023/03/04 08:57:02;;;;;;;251.27;93.97;;;6.50;99.90;;;;;;5030295;28;20276;-76
2023/03/04 08:59:29;;;;;;;239.90;92.57;;;6.60;99.90;;;;;;5030704;28;20124;-74
2023/03/04 09:02:03;;;;;;;262.52;95.25;;;6.70;99.90;;;;;;5030277;28;21064;-76
2023/03/04 09:04:30;;;;;;;256.13;98.15;;;6.80;99.90;;;;;;5030319;28;20122;-76
2023/03/04 09:06:58;;;;;;;224.75;91.10;;;6.90;99.90;;;;;;5028972;28;20396;-75
2023/03/04 09:09:25;;;;;;;249.02;94.07;;;7.00;99.90;;;;;;5032066;28;20112;-74
2023/03/04 09:11:53;;;;;;;267.13;100.72;;;7.00;99.90;;;;;;5030084;28;20049;-74
2023/03/04 09:14:20;;;;;;;269.05;101.18;;;7.20;99.90;;;;;;5030538;28;20049;-73
2023/03/04 09:16:48;;;;;;;272.20;99.40;;;7.30;99.90;;;;;;5028252;28;20041;-75
2023/03/04 09:19:17;;;;;;;278.38;103.15;;;7.30;99.90;;;;;;5029674;28;20045;-75
2023/03/04 09:21:44;;;;;;;274.88;100.60;;;7.30;1.00;;;;;;5034053;28;20029;-78
2023/03/04 09:24:12;;;;;;;272.98;101.00;;;7.40;1.00;;;;;;5049099;28;20228;-77
2023/03/04 09:26:39;;;;;;;256.48;95.97;;;7.30;99.90;;;;;;5025985;23;20076;-78
2023/03/04 09:29:07;;;;;;;256.73;94.65;;;7.40;1.00;;;;;;5006726;28;20565;-79
2023/03/04 09:31:34;;;;;;;233.98;92.63;;;7.50;1.00;;;;;;5006781;28;20330;-76
2023/03/04 09:34:02;;;;;;;271.17;103.97;;;7.60;99.90;;;;;;5008203;28;20121;-82
2023/03/04 09:36:31;;;;;;;265.15;100.68;;;7.70;99.90;;;;;;5007202;28;20050;-77
2023/03/04 09:39:03;;;;;;;221.88;87.95;;;7.80;1.00;;;;;;5006959;28;20033;-78
2023/03/04 09:41:38;;;;;;;193.80;81.53;;;7.90;1.00;;;;;;5006074;28;20453;-78
2023/03/04 09:44:16;;;;;;;194.32;85.18;;;8.00;1.00;;;;;;5006511;28;20151;-77
2023/03/04 09:46:46;;;;;;;199.30;88.57;;;8.00;1.00;;;;;;5007347;28;20096;-78
2023/03/04 09:49:15;;;;;;;219.80;92.53;;;8.10;1.00;;;;;;5008283;28;20045;-76
2023/03/04 09:51:52;;;;;;;220.20;93.03;;;8.20;1.00;;;;;;5007856;28;20038;-81
2023/03/04 09:54:41;;;;;;;223.98;94.05;;;8.40;1.00;;;;;;5009945;28;20041;-79
2023/03/04 09:57:23;;;;;;;242.68;97.65;;;8.70;99.90;;;;;;5007921;28;20053;-77
2023/03/04 10:00:01;;;;;;;205.18;90.20;;;8.80;99.70;;;;;;5006766;28;20103;-78
2023/03/04 10:02:45;;;;;;;184.75;88.75;;;8.90;1.00;;;;;;5007829;28;20079;-76
2023/03/04 10:05:18;;;;;;;179.10;84.50;;;8.90;1.00;;;;;;5006391;28;20541;-76
2023/03/04 10:07:56;;;;;;;166.93;80.05;;;9.00;1.00;;;;;;5005516;28;20689;-79
2023/03/04 10:10:27;;;;;;;168.95;78.97;;;9.20;1.00;;;;;;5006549;28;20469;-78
2023/03/04 10:12:55;;;;;;;169.60;81.28;;;9.10;1.00;;;;;;5015665;28;20048;-78
2023/03/04 10:15:30;;;;;;;158.25;71.40;;;9.40;1.00;;;;;;5015107;28;20046;-77
2023/03/04 10:18:03;;;;;;;146.18;66.50;;;9.70;99.90;;;;;;5008379;28;20073;-79
2023/03/04 10:20:40;;;;;;;144.82;67.18;;;10.10;1.00;;;;;;5006600;28;20042;-77
2023/03/04 10:23:15;;;;;;;166.00;75.70;;;10.20;1.00;;;;;;5006442;28;20065;-75
2023/03/04 10:25:45;;;;;;;156.27;73.43;;;10.20;99.90;;;;;;5007392;28;20060;-76
2023/03/04 10:28:18;;;;;;;159.30;76.57;;;10.10;1.00;;;;;;5006407;28;20524;-76
2023/03/04 10:30:50;;;;;;;162.30;74.82;;;10.20;99.90;;;;;;5008847;28;20050;-78
2023/03/04 10:33:21;;;;;;;161.07;76.60;;;10.10;1.00;;;;;;5005317;28;20049;-77
2023/03/04 10:35:55;;;;;;;164.18;76.57;;;10.10;1.00;;;;;;5006052;28;20133;-77
2023/03/04 10:38:24;;;;;;;152.60;73.78;;;10.40;1.00;;;;;;5007128;28;20050;-77
2023/03/04 10:40:52;;;;;;;152.30;72.07;;;10.50;99.90;;;;;;5006742;28;20050;-79
2023/03/04 10:43:21;;;;;;;156.52;74.85;;;10.50;99.90;;;;;;5007953;28;20038;-79
2023/03/04 10:45:49;;;;;;;148.70;73.57;;;10.80;99.90;;;;;;5006910;28;20501;-78
2023/03/04 10:48:25;;;;;;;154.57;72.53;;;11.00;99.90;;;;;;5007592;28;20054;-78
2023/03/04 10:50:53;;;;;;;149.95;73.25;;;11.30;99.90;;;;;;5010724;28;20034;-76
2023/03/04 10:53:32;;;;;;;152.80;73.38;;;11.50;99.90;;;;;;5009490;28;20487;-77
2023/03/04 10:56:01;;;;;;;157.93;73.45;;;11.70;1.00;;;;;;5009625;28;20049;-74
2023/03/04 10:58:30;;;;;;;147.57;72.85;;;11.60;11.70;;;;;;5010292;28;20405;-77
2023/03/04 11:01:04;;;;;;;142.50;71.68;;;11.70;1.60;;;;;;5010044;28;20066;-75
2023/03/04 11:03:37;;;;;;;163.90;79.15;;;11.70;1.00;;;;;;5009488;28;20057;-76
2023/03/04 11:06:11;;;;;;;147.10;69.72;;;11.90;1.00;;;;;;5008437;28;20096;-77
2023/03/04 11:08:42;;;;;;;170.57;65.43;;;11.80;1.00;;;;;;5009275;28;20046;-75
2023/03/04 11:11:33;;;;;;;138.35;61.20;;;11.80;1.00;;;;;;5009894;28;20041;-75
2023/03/04 11:14:14;;;;;;;130.35;64.97;;;11.60;1.00;;;;;;5009127;28;20044;-75
2023/03/04 11:16:54;;;;;;;132.25;62.30;;;11.50;1.00;;;;;;5009996;28;20052;-78
2023/03/04 11:19:25;;;;;;;125.03;58.63;;;11.60;1.00;;;;;;5011279;28;20072;-78
2023/03/04 11:21:54;;;;;;;129.15;60.25;;;11.70;1.00;;;;;;5008516;28;20050;-76
2023/03/04 11:24:29;;;;;;;122.63;61.67;;;11.90;1.00;;;;;;5008442;28;20137;-76
2023/03/04 11:27:03;;;;;;;132.60;59.35;;;12.10;1.00;;;;;;5010456;28;20111;-75
2023/03/04 11:29:35;;;;;;;122.10;59.05;;;12.00;1.00;;;;;;5010056;28;20038;-75
2023/03/04 11:32:11;;;;;;;111.53;52.20;;;11.90;1.00;;;;;;5009119;28;20042;-77
2023/03/04 11:34:42;;;;;;;107.22;52.83;;;12.00;1.00;;;;;;5010451;28;20038;-77
2023/03/04 11:37:18;;;;;;;114.60;54.25;;;11.70;1.00;;;;;;5009762;28;20049;-78
2023/03/04 11:39:53;;;;;;;111.00;55.28;;;11.60;1.00;;;;;;5008194;28;20072;-77
2023/03/04 11:42:31;;;;;;;116.07;55.72;;;11.60;1.00;;;;;;5010313;28;20045;-75
2023/03/04 11:45:13;;;;;;;112.65;57.42;;;11.60;1.00;;;;;;5009248;28;20415;-75
2023/03/04 11:47:56;;;;;;;117.53;56.05;;;11.80;1.00;;;;;;5008348;28;20140;-77
2023/03/04 11:50:44;;;;;;;113.95;57.40;;;11.90;1.00;;;;;;5009219;28;20049;-76
2023/03/04 11:53:31;;;;;;;121.93;56.08;;;12.00;1.00;;;;;;5008946;28;20038;-75
2023/03/04 11:56:17;;;;;;;125.03;58.95;;;11.90;1.00;;;;;;5007949;28;20046;-75
2023/03/04 11:59:15;;;;;;;120.18;55.28;;;12.10;1.00;;;;;;5009654;28;20045;-77
2023/03/04 12:01:54;;;;;;;117.63;55.55;;;12.10;1.00;;;;;;5008430;28;20046;-76
2023/03/04 12:04:34;;;;;;;125.75;58.97;;;12.30;1.00;;;;;;5009538;28;20056;-76
2023/03/04 12:07:18;;;;;;;127.28;58.45;;;12.20;1.00;;;;;;5009730;28;20045;-76
2023/03/04 12:10:09;;;;;;;120.65;56.55;;;11.80;1.00;;;;;;5008398;28;20643;-76
2023/03/04 12:12:53;;;;;;;113.20;54.85;;;11.90;1.00;;;;;;5009400;28;20056;-78
2023/03/04 12:15:31;;;;;;;128.50;59.05;;;12.00;1.00;;;;;;5009604;28;20038;-76
2023/03/04 12:18:21;;;;;;;125.25;57.47;;;12.10;1.00;;;;;;5008145;28;20064;-76
2023/03/04 12:21:04;;;;;;;133.38;61.25;;;12.20;1.00;;;;;;5009054;28;20045;-77
2023/03/04 12:23:56;;;;;;;134.60;58.45;;;12.30;1.00;;;;;;5012119;28;20045;-77
2023/03/04 12:26:34;;;;;;;133.82;59.05;;;12.20;1.00;;;;;;5017370;28;20110;-76
2023/03/04 12:29:07;;;;;;;130.75;58.22;;;12.00;1.00;;;;;;5011577;28;20045;-76
2023/03/04 12:31:38;;;;;;;137.30;59.75;;;12.00;1.00;;;;;;5010758;28;20137;-77
2023/03/04 12:34:35;;;;;;;139.32;57.88;;;11.80;1.00;;;;;;5010408;28;20050;-75
2023/03/04 12:37:27;;;;;;;126.05;56.42;;;11.60;1.00;;;;;;4975087;28;20054;-75
2023/03/04 12:40:16;;;;;;;142.45;59.15;;;11.20;1.00;;;;;;5009829;28;20048;-75
2023/03/04 12:42:58;;;;;;;146.40;59.83;;;10.80;99.90;;;;;;5011556;28;20110;-76